Time;durP1;ratioP1;P1;durP2;ratioP2;P2;SDS_P1;SDS_P2;PMS_P1;PMS_P2;Temp;Humidity;BMP_temperature;BMP_pressure;BME280_temperature;BME280_humidity;BME280_pressure;Samples;Min_cycle;Max_cycle;Signal;HPM_P1;HPM_P2
2022/06/24 00:00:33;;;;;;;;;10.00;10.00;;;;;25.90;43.24;100284.19;5029718;28;45062;-71
2022/06/24 00:02:59;;;;;;;;;8.67;5.33;;;;;25.85;44.66;100299.88;5031079;28;46050;-72
2022/06/24 00:05:31;;;;;;;;;8.00;6.00;;;;;25.64;44.88;100287.16;5015690;28;45435;-73
2022/06/24 00:07:56;;;;;;;;;7.33;6.00;;;;;25.68;45.92;100286.97;5017857;28;45600;-73
2022/06/24 00:10:29;;;;;;;;;6.00;3.00;;;;;25.61;46.24;100295.53;5022873;28;45410;-71
2022/06/24 00:12:55;;;;;;;;;6.00;6.00;;;;;25.40;46.52;100268.13;5032453;28;45706;-73
2022/06/24 00:15:30;;;;;;;;;9.33;8.00;;;;;25.42;46.86;100279.88;5022142;28;45632;-71
2022/06/24 00:17:56;;;;;;;;;4.67;4.67;;;;;25.38;47.21;100283.72;5020806;28;45288;-72
2022/06/24 00:20:22;;;;;;;;;4.67;4.67;;;;;25.46;47.18;100299.78;5032043;28;45052;-72
2022/06/24 00:22:49;;;;;;;;;12.00;9.33;;;;;25.48;47.78;100306.09;5029801;28;45107;-73
2022/06/24 00:25:23;;;;;;;;;13.00;9.00;;;;;25.41;48.23;100304.56;5030103;28;44953;-72
2022/06/24 00:28:08;;;;;;;;;7.33;6.33;;;;;25.26;48.39;100296.03;5032434;28;44998;-72
2022/06/24 00:30:49;;;;;;;;;8.67;7.00;;;;;25.19;48.33;100281.72;5028227;28;45009;-72
2022/06/24 00:33:20;;;;;;;;;6.67;5.00;;;;;25.15;48.34;100284.66;5032609;28;45851;-72
2022/06/24 00:35:48;;;;;;;;;5.00;5.00;;;;;25.28;48.18;100309.69;5032798;28;45135;-71
2022/06/24 00:38:31;;;;;;;;;16.50;16.50;;;;;25.23;48.08;100309.81;5027764;28;45319;-73
2022/06/24 00:41:03;;;;;;;;;5.67;5.33;;;;;25.06;48.14;100295.94;5018687;28;45169;-72
2022/06/24 00:43:39;;;;;;;;;6.00;6.00;;;;;25.06;47.84;100293.22;5029097;28;46235;-73
2022/06/24 00:46:18;;;;;;;;;6.33;5.00;;;;;25.11;48.03;100315.78;5029632;28;45005;-72
2022/06/24 00:48:50;;;;;;;;;5.00;5.00;;;;;24.95;48.38;100299.13;5032473;28;45417;-71
2022/06/24 00:51:17;;;;;;;;;6.00;5.00;;;;;24.74;48.02;100265.38;5019464;28;45446;-72
2022/06/24 00:53:46;;;;;;;;;8.00;5.67;;;;;24.54;47.85;100245.16;5015998;28;45457;-72
2022/06/24 00:56:14;;;;;;;;;5.00;5.00;;;;;24.84;47.63;100303.16;5021072;28;45342;-72
2022/06/24 00:58:48;;;;;;;;;6.33;5.00;;;;;24.79;47.81;100301.59;5032261;28;45286;-75
2022/06/24 01:01:14;;;;;;;;;5.33;3.33;;;;;24.78;48.04;100291.59;5017411;28;45435;-72
2022/06/24 01:03:43;;;;;;;;;3.33;3.33;;;;;24.78;47.48;100299.78;5028381;28;45358;-71
2022/06/24 01:06:09;;;;;;;;;4.00;3.00;;;;;24.83;47.70;100314.16;5029311;28;45349;-71
2022/06/24 01:08:35;;;;;;;;;4.00;4.00;;;;;24.75;47.86;100297.16;5024379;28;45261;-72
2022/06/24 01:11:01;;;;;;;;;3.00;3.00;;;;;24.40;47.62;100242.06;5037009;28;45543;-71
2022/06/24 01:13:27;;;;;;;;;5.00;5.00;;;;;24.38;48.15;100250.31;5023719;28;45293;-71
2022/06/24 01:15:53;;;;;;;;;6.67;3.67;;;;;24.69;47.82;100301.06;5028932;28;45036;-71
2022/06/24 01:18:19;;;;;;;;;5.33;4.67;;;;;24.50;47.53;100261.72;5029115;28;45103;-71
2022/06/24 01:20:44;;;;;;;;;4.67;4.67;;;;;24.71;48.02;100295.53;5030256;28;45099;-71
2022/06/24 01:23:09;;;;;;;;;5.33;4.00;;;;;24.54;48.00;100268.84;5027128;28;45128;-72
2022/06/24 01:25:35;;;;;;;;;4.00;4.00;;;;;24.64;47.83;100292.16;5017867;28;45558;-72
2022/06/24 01:28:00;;;;;;;;;4.00;4.00;;;;;24.50;47.84;100273.56;5021149;28;45450;-71
2022/06/24 01:30:27;;;;;;;;;4.33;4.33;;;;;24.61;47.47;100295.88;5023157;28;45382;-72
2022/06/24 01:32:52;;;;;;;;;3.00;3.00;;;;;24.58;48.09;100293.28;5030702;28;45180;-72
2022/06/24 01:35:18;;;;;;;;;4.00;4.00;;;;;24.46;47.71;100277.34;5027171;28;45299;-71
2022/06/24 01:37:43;;;;;;;;;3.00;3.00;;;;;24.49;47.78;100288.16;5045644;28;45171;-72
2022/06/24 01:40:10;;;;;;;;;3.67;3.67;;;;;24.58;47.95;100315.16;5027847;28;45064;-71
2022/06/24 01:42:35;;;;;;;;;6.00;5.33;;;;;24.16;48.14;100252.13;5031871;28;45236;-71
2022/06/24 01:45:01;;;;;;;;;5.00;3.67;;;;;24.28;48.87;100287.13;5031623;28;44944;-71
2022/06/24 01:47:26;;;;;;;;;4.67;4.00;;;;;24.40;50.87;100330.34;5031718;28;45235;-73
2022/06/24 01:49:51;;;;;;;;;5.33;4.00;;;;;23.90;52.99;100267.59;5031842;28;45570;-72
2022/06/24 01:52:17;;;;;;;;;3.67;3.67;;;;;24.15;53.52;100324.91;5031692;28;46230;-73
2022/06/24 01:54:42;;;;;;;;;3.00;3.00;;;;;24.07;53.63;100318.81;5031572;28;45411;-71
2022/06/24 01:57:07;;;;;;;;;4.00;4.00;;;;;23.94;56.83;100326.59;5015256;28;45459;-72
2022/06/24 01:59:33;;;;;;;;;4.00;4.00;;;;;23.89;57.91;100347.66;5027097;28;45516;-72
2022/06/24 02:01:58;;;;;;;;;6.00;4.00;;;;;23.73;58.38;100333.66;5026293;28;46197;-71
2022/06/24 02:04:23;;;;;;;;;5.67;4.33;;;;;23.48;58.53;100303.63;5029521;28;45405;-72
2022/06/24 02:06:49;;;;;;;;;3.00;3.00;;;;;23.56;59.47;100323.34;5027540;28;45496;-71
2022/06/24 02:09:16;;;;;;;;;3.33;3.33;;;;;23.51;59.14;100326.22;5030864;28;45116;-72
2022/06/24 02:14:27;;;;;;;;;5.00;5.00;;;;;23.24;59.87;100316.22;5029006;28;45183;-72
2022/06/24 02:16:52;;;;;;;;;7.00;5.00;;;;;23.12;59.54;100291.16;5028566;28;45223;-71
2022/06/24 02:19:18;;;;;;;;;4.67;4.67;;;;;23.22;59.96;100308.09;5030143;28;45060;-72
2022/06/24 02:21:44;;;;;;;;;5.00;4.67;;;;;23.19;59.90;100303.63;5030011;28;45187;-71
2022/06/24 02:24:11;;;;;;;;;5.00;5.00;;;;;23.14;59.26;100311.06;5030101;28;45348;-72
2022/06/24 02:26:36;;;;;;;;;3.67;3.67;;;;;22.95;57.92;100294.41;5033270;28;45097;-71
2022/06/24 02:29:02;;;;;;;;;5.00;4.33;;;;;23.01;58.52;100315.09;5029515;28;45320;-73
2022/06/24 02:31:28;;;;;;;;;2.00;2.00;;;;;22.96;58.77;100325.25;5030811;28;45231;-73
2022/06/24 02:33:53;;;;;;;;;3.00;3.00;;;;;22.90;59.16;100334.53;5033741;28;45033;-72
2022/06/24 02:36:19;;;;;;;;;4.67;3.00;;;;;22.84;59.40;100337.44;5029638;28;45056;-73
2022/06/24 02:38:44;;;;;;;;;4.67;3.00;;;;;22.60;59.67;100323.63;5029869;28;45179;-72
2022/06/24 02:41:10;;;;;;;;;6.33;4.33;;;;;22.63;61.53;100309.91;5032472;28;45529;-72
2022/06/24 02:43:37;;;;;;;;;5.00;5.00;;;;;22.57;61.14;100284.69;5029519;28;45387;-72
2022/06/24 02:46:10;;;;;;;;;3.67;3.00;;;;;22.72;60.41;100299.66;5029644;28;45232;-72
2022/06/24 02:48:39;;;;;;;;;0.00;0.00;;;;;22.74;60.42;100292.38;5030822;28;44886;-73
2022/06/24 02:51:06;;;;;;;;;3.00;2.00;;;;;22.80;59.83;100289.44;5032816;28;45733;-72
2022/06/24 02:53:32;;;;;;;;;2.67;2.33;;;;;22.80;59.74;100295.78;5032199;28;44962;-71
2022/06/24 02:56:09;;;;;;;;;3.67;3.67;;;;;22.71;59.93;100282.44;5032220;28;45391;-74
2022/06/24 02:58:35;;;;;;;;;4.67;4.67;;;;;22.69;60.19;100286.19;5023182;28;45211;-72
2022/06/24 03:01:02;;;;;;;;;5.33;5.00;;;;;22.67;60.09;100291.66;5030418;28;45777;-73
2022/06/24 03:03:29;;;;;;;;;5.00;5.00;;;;;22.46;59.54;100257.81;5031077;28;44961;-72
2022/06/24 03:05:54;;;;;;;;;5.33;3.00;;;;;22.56;60.00;100289.25;5028195;28;45080;-72
2022/06/24 03:08:22;;;;;;;;;6.33;4.67;;;;;22.20;59.99;100217.75;5032965;28;45089;-74
2022/06/24 03:10:49;;;;;;;;;4.67;4.00;;;;;22.64;60.88;100283.59;5032463;28;45944;-73
2022/06/24 03:13:17;;;;;;;;;4.33;3.67;;;;;22.69;60.53;100284.34;5029373;28;45347;-72
2022/06/24 03:15:43;;;;;;;;;6.33;6.33;;;;;22.60;60.25;100255.56;5030022;28;45422;-72
2022/06/24 03:18:09;;;;;;;;;5.00;4.00;;;;;22.49;59.39;100248.66;5025874;28;45319;-72
2022/06/24 03:20:35;;;;;;;;;5.33;5.33;;;;;22.71;60.39;100284.28;5036113;28;45850;-72
2022/06/24 03:23:00;;;;;;;;;4.00;2.67;;;;;22.67;59.42;100285.31;5030158;28;45235;-72
2022/06/24 03:25:26;;;;;;;;;5.67;4.33;;;;;22.56;59.77;100262.03;5029731;28;44960;-73
2022/06/24 03:27:51;;;;;;;;;3.00;3.00;;;;;22.50;59.90;100259.50;5029311;28;45272;-72
2022/06/24 03:30:17;;;;;;;;;3.00;3.00;;;;;22.41;59.37;100238.91;5030110;28;45257;-72
2022/06/24 03:32:42;;;;;;;;;4.00;3.33;;;;;22.50;59.76;100269.50;5028822;28;45353;-73
2022/06/24 03:35:08;;;;;;;;;4.33;4.00;;;;;22.57;59.80;100281.97;5029397;28;45296;-73
2022/06/24 03:37:35;;;;;;;;;6.00;3.33;;;;;22.52;59.74;100278.50;5020456;28;45516;-74
2022/06/24 03:40:02;;;;;;;;;3.00;3.00;;;;;22.47;59.51;100285.91;5024635;28;46091;-74
2022/06/24 03:42:27;;;;;;;;;4.33;4.00;;;;;22.37;59.39;100268.97;5026760;28;45308;-73
2022/06/24 03:44:53;;;;;;;;;3.00;3.00;;;;;22.21;59.93;100241.31;5029937;28;45223;-73
2022/06/24 03:47:19;;;;;;;;;4.33;4.33;;;;;22.41;59.77;100273.41;5033058;28;45198;-74
2022/06/24 03:49:44;;;;;;;;;5.00;3.67;;;;;22.12;60.36;100238.84;5032960;28;45197;-72
2022/06/24 03:52:10;;;;;;;;;4.33;3.00;;;;;22.17;60.32;100255.94;5034426;28;45111;-72
2022/06/24 03:54:35;;;;;;;;;5.00;4.00;;;;;22.29;60.69;100279.19;5031538;28;45600;-72
2022/06/24 03:57:01;;;;;;;;;3.67;3.33;;;;;22.26;60.90;100274.72;5031226;28;45263;-73
2022/06/24 03:59:26;;;;;;;;;3.33;2.33;;;;;22.11;60.89;100253.38;5029808;28;45328;-72
2022/06/24 04:01:52;;;;;;;;;4.00;4.00;;;;;22.19;61.52;100271.28;5031313;28;45253;-72
2022/06/24 04:04:17;;;;;;;;;3.67;3.67;;;;;22.16;61.54;100265.00;5031857;28;45843;-72
2022/06/24 04:06:43;;;;;;;;;5.33;5.00;;;;;22.00;61.45;100242.81;5032488;28;45142;-72
2022/06/24 04:09:08;;;;;;;;;5.00;4.00;;;;;22.14;60.98;100266.91;5032102;28;45800;-73
2022/06/24 04:11:34;;;;;;;;;6.00;4.00;;;;;22.10;61.58;100271.53;5029960;28;45156;-71
2022/06/24 04:14:00;;;;;;;;;2.67;2.67;;;;;21.84;61.21;100242.38;5031424;28;45185;-72
2022/06/24 04:16:26;;;;;;;;;3.33;2.33;;;;;22.02;61.03;100281.75;5031566;28;45240;-72
2022/06/24 04:18:51;;;;;;;;;3.00;3.00;;;;;21.96;61.76;100280.13;5031742;28;45691;-72
2022/06/24 04:21:17;;;;;;;;;4.00;3.00;;;;;21.91;61.70;100271.19;5032537;28;45029;-74
2022/06/24 04:23:44;;;;;;;;;6.33;6.33;;;;;21.95;62.45;100289.19;5031479;28;45951;-72
2022/06/24 04:26:11;;;;;;;;;3.00;3.00;;;;;21.96;61.69;100285.56;5032373;28;45150;-72
2022/06/24 04:28:38;;;;;;;;;7.33;4.67;;;;;21.95;61.79;100269.28;5030401;28;45810;-72
2022/06/24 04:31:04;;;;;;;;;4.00;4.00;;;;;21.91;61.68;100268.47;5032322;28;45058;-74
2022/06/24 04:33:29;;;;;;;;;3.00;3.00;;;;;21.83;61.71;100260.53;5028726;28;46144;-73
2022/06/24 04:35:55;;;;;;;;;4.33;4.33;;;;;21.95;61.62;100288.31;5029792;28;45391;-72
2022/06/24 04:38:20;;;;;;;;;3.67;3.67;;;;;21.85;62.02;100283.13;5030421;28;45629;-72
2022/06/24 04:40:46;;;;;;;;;4.00;4.00;;;;;21.48;62.01;100209.81;5031488;28;44978;-72
2022/06/24 04:43:12;;;;;;;;;8.00;4.33;;;;;21.96;61.99;100280.13;5029735;28;45144;-73
2022/06/24 04:45:38;;;;;;;;;4.00;4.00;;;;;21.94;61.94;100283.78;5028944;28;44973;-75
2022/06/24 04:48:04;;;;;;;;;5.00;5.00;;;;;21.83;61.97;100273.22;5026197;28;47125;-72
2022/06/24 04:50:30;;;;;;;;;2.00;2.00;;;;;21.80;62.18;100252.44;5029173;28;46203;-73
2022/06/24 04:52:55;;;;;;;;;5.00;5.00;;;;;22.03;62.18;100283.56;5030301;28;45289;-72
2022/06/24 04:55:21;;;;;;;;;4.00;4.00;;;;;22.07;61.70;100286.09;5040110;28;45214;-72
2022/06/24 04:57:47;;;;;;;;;6.00;5.00;;;;;21.97;61.61;100267.38;5028975;28;45702;-72
2022/06/24 05:00:13;;;;;;;;;5.67;4.33;;;;;21.98;61.51;100267.34;5028817;28;45243;-73
2022/06/24 05:02:39;;;;;;;;;5.00;5.00;;;;;21.97;61.69;100265.56;5029611;28;45053;-72
2022/06/24 05:05:05;;;;;;;;;5.67;5.00;;;;;22.10;61.71;100274.25;5027166;28;45326;-74
2022/06/24 05:07:31;;;;;;;;;5.00;5.00;;;;;21.90;61.31;100247.63;5028463;28;45302;-73
2022/06/24 05:09:56;;;;;;;;;4.33;4.33;;;;;21.90;61.19;100253.97;5027645;28;45277;-74
2022/06/24 05:12:21;;;;;;;;;6.00;6.00;;;;;22.03;61.64;100287.16;5029096;28;45076;-73
2022/06/24 05:14:47;;;;;;;;;5.00;5.00;;;;;21.99;62.29;100298.16;5026383;28;45636;-74
2022/06/24 05:17:12;;;;;;;;;6.00;6.00;;;;;21.75;62.08;100251.69;5030217;28;45646;-73
2022/06/24 05:19:38;;;;;;;;;4.33;4.33;;;;;21.88;61.85;100261.28;5029075;28;44989;-73
2022/06/24 05:22:03;;;;;;;;;6.33;5.00;;;;;21.94;61.81;100270.19;5030888;28;45257;-73
2022/06/24 05:24:29;;;;;;;;;5.67;5.67;;;;;21.97;61.88;100264.66;5027710;28;45203;-72
2022/06/24 05:26:54;;;;;;;;;7.00;5.67;;;;;22.00;62.00;100283.63;5029797;28;46308;-72
2022/06/24 05:29:19;;;;;;;;;7.67;5.33;;;;;21.87;61.76;100272.19;5027704;28;45199;-74
2022/06/24 05:31:45;;;;;;;;;5.33;5.33;;;;;21.52;61.74;100209.69;5027174;28;45115;-74
2022/06/24 05:34:11;;;;;;;;;9.33;6.00;;;;;21.95;62.26;100289.19;5026428;28;45167;-73
2022/06/24 05:36:37;;;;;;;;;5.33;5.33;;;;;21.81;61.95;100264.19;5027841;28;45272;-73
2022/06/24 05:39:05;;;;;;;;;4.33;4.33;;;;;21.52;61.77;100206.97;5023660;28;45276;-74
2022/06/24 05:41:31;;;;;;;;;5.67;5.67;;;;;22.00;61.92;100280.91;5027637;28;45175;-75
2022/06/24 05:43:56;;;;;;;;;17.00;14.50;;;;;21.86;61.91;100271.31;5026830;28;45434;-72
2022/06/24 05:46:22;;;;;;;;;7.67;7.00;;;;;21.99;61.83;100288.19;5016109;28;45915;-74
2022/06/24 05:48:47;;;;;;;;;20.00;19.00;;;;;22.03;62.18;100297.16;5021323;28;45466;-73
2022/06/24 05:51:15;;;;;;;;;17.25;15.00;;;;;22.08;61.88;100290.63;5026079;28;45579;-75
2022/06/24 05:56:26;;;;;;;;;10.00;7.00;;;;;22.14;61.14;100292.31;5026634;28;45234;-74
2022/06/24 05:58:51;;;;;;;;;10.33;9.00;;;;;22.15;61.07;100299.50;5030856;28;45014;-72
2022/06/24 06:01:17;;;;;;;;;6.00;6.00;;;;;22.09;61.05;100299.66;5031839;28;45212;-72
2022/06/24 06:03:43;;;;;;;;;8.00;8.00;;;;;21.97;60.61;100273.72;5029772;28;44963;-72
2022/06/24 06:06:09;;;;;;;;;9.00;7.67;;;;;22.00;60.50;100286.34;5031386;28;45649;-74
2022/06/24 06:08:36;;;;;;;;;6.33;6.00;;;;;22.13;60.55;100309.56;5031163;28;45364;-73
2022/06/24 06:11:01;;;;;;;;;9.00;9.00;;;;;22.02;60.82;100282.63;5031603;28;44992;-72
2022/06/24 06:13:27;;;;;;;;;6.00;6.00;;;;;22.11;60.22;100300.53;5031469;28;45074;-72
2022/06/24 06:15:52;;;;;;;;;7.00;7.00;;;;;22.11;60.22;100295.09;5031019;28;46007;-73
2022/06/24 06:18:18;;;;;;;;;10.00;10.00;;;;;22.24;60.21;100320.09;5030155;28;45053;-72
2022/06/24 06:20:43;;;;;;;;;5.67;5.67;;;;;22.25;59.78;100317.34;5030629;28;45542;-73
2022/06/24 06:23:08;;;;;;;;;7.33;5.67;;;;;22.11;59.47;100294.19;5020763;28;45412;-73
2022/06/24 06:25:34;;;;;;;;;8.00;6.00;;;;;22.25;59.82;100336.41;5014658;28;45848;-73
2022/06/24 06:28:01;;;;;;;;;9.67;7.33;;;;;22.12;59.60;100296.88;5016157;28;45383;-73
2022/06/24 06:30:30;;;;;;;;;5.00;5.00;;;;;22.25;59.25;100330.94;5016515;28;45520;-75
2022/06/24 06:32:56;;;;;;;;;8.33;6.33;;;;;22.22;58.81;100325.63;5016416;28;45610;-73
2022/06/24 06:35:21;;;;;;;;;5.00;5.00;;;;;22.13;59.44;100317.72;5016256;28;46585;-75
2022/06/24 06:37:47;;;;;;;;;7.00;7.00;;;;;22.13;59.54;100316.84;5016031;28;45441;-73
2022/06/24 06:40:12;;;;;;;;;8.00;7.00;;;;;22.14;59.52;100315.88;5016664;28;46167;-73
2022/06/24 06:42:37;;;;;;;;;4.00;4.00;;;;;22.05;59.36;100308.88;5016645;28;45430;-72
2022/06/24 06:45:04;;;;;;;;;9.00;5.67;;;;;22.02;59.66;100300.78;5009620;28;45557;-74
2022/06/24 06:47:29;;;;;;;;;7.00;7.00;;;;;22.21;59.38;100322.94;5015775;28;45474;-75
2022/06/24 06:49:54;;;;;;;;;5.00;5.00;;;;;21.99;58.82;100285.47;5015990;28;45806;-74
2022/06/24 06:52:20;;;;;;;;;8.67;6.33;;;;;22.29;58.70;100330.91;5015975;28;45500;-73
2022/06/24 06:54:46;;;;;;;;;6.00;6.00;;;;;22.37;58.65;100328.84;5015533;28;45904;-75
2022/06/24 06:57:11;;;;;;;;;6.00;6.00;;;;;22.34;58.40;100310.81;5015909;28;45682;-73
2022/06/24 06:59:36;;;;;;;;;4.00;4.00;;;;;22.44;58.04;100322.31;5014504;28;45333;-75
2022/06/24 07:02:02;;;;;;;;;7.67;7.00;;;;;22.20;57.98;100270.34;5016089;28;45272;-73
2022/06/24 07:04:27;;;;;;;;;7.67;7.33;;;;;22.54;57.42;100333.81;5015498;28;46358;-76
2022/06/24 07:06:53;;;;;;;;;5.67;4.00;;;;;22.59;57.64;100330.00;5015506;28;45376;-72
2022/06/24 07:09:19;;;;;;;;;6.00;6.00;;;;;22.61;57.26;100328.13;5016160;28;45349;-74
2022/06/24 07:11:44;;;;;;;;;6.67;6.67;;;;;22.52;56.83;100317.53;5013526;28;45830;-74
2022/06/24 07:14:09;;;;;;;;;9.67;7.00;;;;;22.67;56.80;100323.44;5015614;28;46281;-74
2022/06/24 07:16:35;;;;;;;;;5.00;5.00;;;;;22.73;56.92;100332.31;5030333;28;45366;-74
2022/06/24 07:19:00;;;;;;;;;6.00;4.00;;;;;22.75;56.68;100330.44;5015613;28;46791;-73
2022/06/24 07:21:25;;;;;;;;;8.00;6.33;;;;;22.72;56.48;100316.91;5015525;28;45394;-73
2022/06/24 07:23:51;;;;;;;;;7.00;7.00;;;;;22.59;56.36;100283.72;5015251;28;46074;-72
2022/06/24 07:26:16;;;;;;;;;6.67;6.67;;;;;22.76;56.37;100315.88;5015629;28;45702;-74
2022/06/24 07:28:42;;;;;;;;;7.67;7.67;;;;;22.80;56.16;100322.09;5015567;28;45480;-73
2022/06/24 07:31:18;;;;;;;;;9.33;9.00;;;;;22.78;55.96;100303.09;5015720;28;45304;-72
2022/06/24 07:33:44;;;;;;;;;7.00;5.33;;;;;22.67;55.68;100283.50;5013572;28;45656;-73
2022/06/24 07:36:10;;;;;;;;;6.33;5.00;;;;;22.67;55.71;100282.59;5014842;28;45321;-74
2022/06/24 07:38:37;;;;;;;;;1.00;1.00;;;;;22.76;55.92;100282.31;5013615;28;45616;-74
2022/06/24 07:41:02;;;;;;;;;4.00;4.00;;;;;23.01;54.89;100312.38;5015975;28;45569;-72
2022/06/24 07:43:28;;;;;;;;;5.33;5.33;;;;;23.20;54.88;100307.28;5014941;28;45412;-72
2022/06/24 07:45:54;;;;;;;;;5.00;3.67;;;;;23.41;54.35;100296.56;5008818;28;45541;-72
2022/06/24 07:48:20;;;;;;;;;6.33;6.00;;;;;23.62;53.60;100311.31;5015000;28;45497;-73
2022/06/24 07:50:45;;;;;;;;;4.67;4.67;;;;;23.64;53.34;100285.78;5014901;28;45689;-73
2022/06/24 07:53:11;;;;;;;;;4.00;4.00;;;;;23.84;52.49;100293.28;5014800;28;45994;-71
2022/06/24 07:58:20;;;;;;;;;7.67;3.33;;;;;24.01;51.77;100291.78;5015037;28;45368;-71
2022/06/24 08:00:46;;;;;;;;;2.00;2.00;;;;;24.06;51.12;100296.13;5015293;28;45593;-73
2022/06/24 08:03:11;;;;;;;;;4.00;4.00;;;;;23.90;52.00;100271.22;5014474;28;46284;-74
2022/06/24 08:05:37;;;;;;;;;6.67;5.67;;;;;23.98;52.15;100287.31;5014762;28;45371;-72
2022/06/24 08:08:02;;;;;;;;;6.33;5.33;;;;;23.89;52.34;100260.34;5014751;28;45641;-73
2022/06/24 08:10:28;;;;;;;;;6.33;6.33;;;;;23.96;51.73;100280.16;5013786;28;45557;-73
2022/06/24 08:12:54;;;;;;;;;5.33;4.67;;;;;23.97;51.89;100280.06;5014744;28;45471;-74
2022/06/24 08:15:19;;;;;;;;;5.67;5.67;;;;;24.08;51.25;100309.69;5015162;28;45519;-74
2022/06/24 08:17:45;;;;;;;;;7.00;7.00;;;;;23.92;51.51;100287.53;5014846;28;45349;-74
2022/06/24 08:20:10;;;;;;;;;7.00;7.00;;;;;23.92;50.85;100306.63;5013518;28;45488;-74
2022/06/24 08:22:36;;;;;;;;;9.00;7.67;;;;;23.80;51.16;100291.56;5013722;28;45530;-72
2022/06/24 08:25:02;;;;;;;;;9.33;6.67;;;;;23.77;51.06;100288.94;5014800;28;45040;-75
2022/06/24 08:27:27;;;;;;;;;7.00;7.00;;;;;23.94;51.45;100312.94;5014635;28;45561;-73
2022/06/24 08:29:52;;;;;;;;;7.67;5.33;;;;;23.85;51.43;100294.16;5014844;28;45398;-72
2022/06/24 08:32:18;;;;;;;;;9.33;9.33;;;;;24.00;50.81;100311.81;5014460;28;46226;-74
2022/06/24 08:34:44;;;;;;;;;6.33;5.00;;;;;23.98;50.35;100303.69;5014417;28;45584;-76
2022/06/24 08:37:09;;;;;;;;;4.00;4.00;;;;;23.89;50.01;100294.00;5014591;28;46226;-72
2022/06/24 08:39:34;;;;;;;;;5.00;5.00;;;;;23.83;49.88;100266.06;5014639;28;45429;-73
2022/06/24 08:42:02;;;;;;;;;5.33;4.00;;;;;24.09;48.88;100308.78;5013990;28;45444;-72
2022/06/24 08:44:27;;;;;;;;;4.67;4.67;;;;;23.87;48.73;100279.53;5014372;28;45416;-75
2022/06/24 08:46:53;;;;;;;;;7.33;5.00;;;;;24.03;49.03;100308.97;5014373;28;45491;-72
2022/06/24 08:49:19;;;;;;;;;5.00;3.00;;;;;24.00;48.63;100303.63;5014943;28;45330;-74
2022/06/24 08:51:47;;;;;;;;;3.00;3.00;;;;;23.97;47.99;100306.47;5014283;28;46406;-72
2022/06/24 08:54:16;;;;;;;;;5.33;4.00;;;;;23.76;48.49;100261.72;5013483;28;45354;-73
2022/06/24 08:56:42;;;;;;;;;4.67;4.67;;;;;23.96;48.66;100291.06;5014230;28;45685;-73
2022/06/24 08:59:07;;;;;;;;;4.33;3.33;;;;;23.87;48.40;100254.06;5014495;28;45580;-74
2022/06/24 09:01:40;;;;;;;;;4.00;4.00;;;;;24.03;48.00;100274.38;5013941;28;45611;-72
2022/06/24 09:04:07;;;;;;;;;7.00;5.67;;;;;24.06;48.33;100271.56;5008342;28;45371;-73
2022/06/24 09:06:38;;;;;;;;;5.00;5.00;;;;;24.20;48.25;100267.41;5012306;28;45281;-72
2022/06/24 09:09:04;;;;;;;;;7.00;6.00;;;;;24.26;47.77;100254.41;5014362;28;45514;-71
2022/06/24 09:11:40;;;;;;;;;5.67;4.00;;;;;24.40;47.87;100266.63;5013417;28;46121;-72
2022/06/24 09:14:06;;;;;;;;;4.33;3.00;;;;;24.50;47.52;100278.09;5013892;28;45622;-75
2022/06/24 09:16:36;;;;;;;;;4.33;4.33;;;;;24.47;47.36;100268.22;5013629;28;45496;-73
2022/06/24 09:19:04;;;;;;;;;4.00;4.00;;;;;24.28;47.29;100241.59;5014058;28;45542;-74
2022/06/24 09:21:36;;;;;;;;;3.33;3.33;;;;;24.44;46.74;100258.28;5013494;28;46445;-71
2022/06/24 09:24:05;;;;;;;;;3.00;3.00;;;;;24.48;46.72;100261.78;5013667;28;45341;-75
2022/06/24 09:26:35;;;;;;;;;6.00;4.33;;;;;24.46;47.24;100259.09;5013970;28;45546;-72
2022/06/24 09:29:01;;;;;;;;;4.00;4.00;;;;;24.38;47.64;100236.66;5013786;28;45244;-72
2022/06/24 09:31:28;;;;;;;;;3.00;3.00;;;;;24.39;47.07;100233.00;5013523;28;46940;-71
2022/06/24 09:33:55;;;;;;;;;3.00;3.00;;;;;24.46;46.53;100250.03;5012546;28;45402;-74
2022/06/24 09:36:24;;;;;;;;;2.00;2.00;;;;;24.39;46.52;100230.25;5013984;28;45359;-73
2022/06/24 09:39:02;;;;;;;;;5.67;4.00;;;;;24.43;46.59;100231.91;5013778;28;45271;-72
2022/06/24 09:41:29;;;;;;;;;3.00;2.00;;;;;24.61;45.85;100246.72;5014313;28;46278;-73
2022/06/24 09:43:57;;;;;;;;;3.33;3.33;;;;;24.67;46.38;100229.22;5013651;28;45730;-71
2022/06/24 09:46:24;;;;;;;;;6.00;3.00;;;;;24.65;45.98;100212.00;5013532;28;45328;-72
2022/06/24 09:48:57;;;;;;;;;4.00;4.00;;;;;24.65;45.83;100214.72;5013779;28;45620;-71
2022/06/24 09:51:22;;;;;;;;;4.00;4.00;;;;;24.54;45.33;100189.66;5013626;28;45362;-72
2022/06/24 09:53:51;;;;;;;;;4.33;4.33;;;;;24.58;45.43;100207.72;5012624;28;45604;-72
2022/06/24 09:56:17;;;;;;;;;4.00;2.67;;;;;24.67;45.75;100222.88;5013434;28;45414;-74
2022/06/24 09:58:43;;;;;;;;;6.33;4.00;;;;;24.57;45.88;100227.81;5013499;28;45364;-74
2022/06/24 10:01:09;;;;;;;;;3.33;2.00;;;;;24.51;45.86;100220.69;5012558;28;46504;-72
2022/06/24 10:03:37;;;;;;;;;1.67;1.67;;;;;24.40;45.85;100206.56;5012890;28;45476;-72
2022/06/24 10:06:05;;;;;;;;;3.33;3.33;;;;;24.35;45.33;100192.22;5013174;28;45442;-71
2022/06/24 10:08:34;;;;;;;;;2.00;2.00;;;;;24.50;45.37;100215.28;5011898;28;45622;-73
2022/06/24 10:11:00;;;;;;;;;3.67;3.33;;;;;24.59;44.54;100229.50;5012650;28;45393;-73
2022/06/24 10:13:28;;;;;;;;;2.67;2.00;;;;;24.61;45.38;100240.38;5010825;28;45613;-74
2022/06/24 10:15:56;;;;;;;;;4.67;4.00;;;;;24.50;45.00;100209.81;5012801;28;45479;-74
2022/06/24 10:18:27;;;;;;;;;4.00;4.00;;;;;24.59;44.94;100223.16;5013357;28;45643;-72
2022/06/24 10:20:57;;;;;;;;;5.00;2.33;;;;;24.44;45.39;100195.47;5012616;28;46228;-75
2022/06/24 10:23:46;;;;;;;;;2.00;2.00;;;;;24.65;44.81;100222.94;5015598;28;45425;-73
2022/06/24 10:26:14;;;;;;;;;3.00;2.00;;;;;24.65;44.77;100233.84;5013080;28;45402;-74
2022/06/24 10:29:04;;;;;;;;;3.67;1.00;;;;;24.61;44.96;100234.91;5012527;28;45653;-73
2022/06/24 10:31:41;;;;;;;;;4.00;3.00;;;;;24.63;45.47;100231.19;5008818;28;45509;-74
2022/06/24 10:34:07;;;;;;;;;2.67;2.67;;;;;24.61;45.24;100226.72;5010950;28;45444;-74
2022/06/24 10:36:33;;;;;;;;;5.00;4.33;;;;;24.74;45.34;100238.03;5011272;28;45374;-73
2022/06/24 10:39:43;;;;;;;;;2.00;2.00;;;;;24.60;44.40;100211.25;5012783;28;45505;-71
2022/06/24 10:42:14;;;;;;;;;6.33;5.33;;;;;24.75;45.41;100215.22;5007644;28;45525;-73
2022/06/24 10:44:55;;;;;;;;;1.00;1.00;;;;;24.76;44.99;100208.81;5012496;28;45514;-75
2022/06/24 10:47:28;;;;;;;;;3.67;2.33;;;;;24.80;45.31;100203.16;5016074;28;45613;-73
2022/06/24 10:50:00;;;;;;;;;3.33;2.00;;;;;25.00;44.49;100210.53;5015866;28;45390;-74
2022/06/24 10:52:35;;;;;;;;;1.33;1.33;;;;;25.12;43.52;100206.38;5015797;28;46448;-72
2022/06/24 10:55:28;;;;;;;;;2.33;2.33;;;;;25.19;43.23;100204.25;5009316;28;45269;-72
2022/06/24 10:57:55;;;;;;;;;3.33;2.00;;;;;25.29;42.56;100197.50;5012678;28;45716;-72
2022/06/24 11:00:26;;;;;;;;;4.33;4.33;;;;;25.39;42.64;100203.44;5016284;28;45536;-74
2022/06/24 11:03:12;;;;;;;;;4.67;4.67;;;;;25.16;43.24;100142.44;5016079;28;45473;-72
2022/06/24 11:05:44;;;;;;;;;2.67;2.00;;;;;25.51;43.29;100182.88;5015096;28;45387;-74
2022/06/24 11:08:13;;;;;;;;;3.00;3.00;;;;;25.73;43.05;100201.94;5015441;28;45545;-72
2022/06/24 11:10:40;;;;;;;;;7.00;4.67;;;;;25.67;41.43;100188.53;5015606;28;45558;-72
2022/06/24 11:13:06;;;;;;;;;1.67;1.00;;;;;25.85;41.25;100208.69;5011342;28;46222;-73
2022/06/24 11:15:37;;;;;;;;;9.67;8.00;;;;;25.96;41.07;100197.31;5015226;28;45482;-72
2022/06/24 11:18:14;;;;;;;;;3.00;2.00;;;;;26.08;39.76;100194.84;5015195;28;45479;-73
2022/06/24 11:20:51;;;;;;;;;2.00;2.00;;;;;26.15;39.82;100189.09;5010835;28;45378;-75
2022/06/24 11:23:18;;;;;;;;;7.00;6.00;;;;;26.36;39.38;100199.03;5015091;28;46375;-71
2022/06/24 11:25:47;;;;;;;;;5.67;5.67;;;;;26.36;39.32;100193.53;5015263;28;45691;-72
2022/06/24 11:28:26;;;;;;;;;2.33;2.33;;;;;26.45;39.71;100197.72;5015180;28;45444;-72
2022/06/24 11:30:53;;;;;;;;;4.33;4.33;;;;;26.40;40.06;100183.31;5020240;28;45339;-73
2022/06/24 11:33:20;;;;;;;;;3.00;3.00;;;;;26.47;40.19;100196.66;5014597;28;45412;-74